createdAt,value
2018-01-26T00:01:17.509Z,5.30
2018-01-26T00:03:45.110Z,3.33
2018-01-26T00:06:12.850Z,3.80
2018-01-26T00:08:40.454Z,4.57
2018-01-26T00:11:08.072Z,4.13
2018-01-26T00:13:35.733Z,3.90
2018-01-26T00:16:03.365Z,4.40
2018-01-26T00:18:30.951Z,4.33
2018-01-26T00:20:58.597Z,4.40
2018-01-26T00:23:26.181Z,4.37
2018-01-26T00:25:53.802Z,4.13
2018-01-26T00:28:21.401Z,4.10
2018-01-26T00:30:49.103Z,4.13
2018-01-26T00:33:16.800Z,4.47
2018-01-26T00:35:44.456Z,3.93
2018-01-26T00:38:12.123Z,3.63
2018-01-26T00:40:39.852Z,4.50
2018-01-26T00:43:07.473Z,4.57
2018-01-26T00:45:35.126Z,4.30
2018-01-26T00:48:02.767Z,4.80
2018-01-26T00:50:30.617Z,4.30
2018-01-26T00:52:59.030Z,4.67
2018-01-26T00:55:26.696Z,4.87
2018-01-26T00:57:54.374Z,4.57
2018-01-26T01:00:22.014Z,4.53
2018-01-26T01:02:49.682Z,5.33
2018-01-26T01:05:17.301Z,4.13
2018-01-26T01:07:45.033Z,3.47
2018-01-26T01:10:12.741Z,3.37
2018-01-26T01:12:40.403Z,4.40
2018-01-26T01:15:08.011Z,3.80
2018-01-26T01:17:35.651Z,4.90
2018-01-26T01:20:03.263Z,4.53
2018-01-26T01:22:30.911Z,3.67
2018-01-26T01:24:58.582Z,3.30
2018-01-26T01:27:26.210Z,4.40
2018-01-26T01:29:53.892Z,3.83
2018-01-26T01:32:21.588Z,3.50
2018-01-26T01:34:49.202Z,3.70
2018-01-26T01:37:16.927Z,3.20
2018-01-26T01:39:44.579Z,3.83
2018-01-26T01:42:12.246Z,3.83
2018-01-26T01:44:39.947Z,2.97
2018-01-26T01:47:07.744Z,3.17
2018-01-26T01:49:35.409Z,3.40
2018-01-26T01:52:03.203Z,2.90
2018-01-26T01:54:30.860Z,4.33
2018-01-26T01:56:58.600Z,3.73
2018-01-26T01:59:28.279Z,3.47
2018-01-26T02:01:56.206Z,4.80
2018-01-26T02:04:23.893Z,3.10
2018-01-26T02:06:51.796Z,4.37
2018-01-26T02:09:19.494Z,3.77
2018-01-26T02:11:48.225Z,4.37
2018-01-26T02:14:16.078Z,3.80
2018-01-26T02:16:43.857Z,4.77
2018-01-26T02:19:11.541Z,4.60
2018-01-26T02:21:39.279Z,4.13
2018-01-26T02:24:06.982Z,3.90
2018-01-26T02:26:34.633Z,4.27
2018-01-26T02:29:02.433Z,3.90
2018-01-26T02:31:30.171Z,3.37
2018-01-26T02:33:57.954Z,4.00
2018-01-26T02:36:25.765Z,3.37
2018-01-26T02:38:53.532Z,3.50
2018-01-26T02:41:21.197Z,4.20
2018-01-26T02:43:50.514Z,4.07
2018-01-26T02:46:18.182Z,4.70
2018-01-26T02:48:46.122Z,4.17
2018-01-26T02:51:13.912Z,3.67
2018-01-26T02:53:41.661Z,4.10
2018-01-26T02:56:09.493Z,3.90
2018-01-26T02:58:37.204Z,3.40
2018-01-26T03:01:04.845Z,4.07
2018-01-26T03:03:32.632Z,4.03
2018-01-26T03:06:00.389Z,3.90
2018-01-26T03:08:28.181Z,4.33
2018-01-26T03:10:55.753Z,4.83
2018-01-26T03:13:23.375Z,4.07
2018-01-26T03:15:50.989Z,4.10
2018-01-26T03:18:18.609Z,3.93
2018-01-26T03:20:46.205Z,3.87
2018-01-26T03:23:13.833Z,3.80
2018-01-26T03:25:41.626Z,3.77
2018-01-26T03:28:09.362Z,4.27
2018-01-26T03:30:36.946Z,3.47
2018-01-26T03:33:04.553Z,3.93
2018-01-26T03:35:32.150Z,4.37
2018-01-26T03:37:59.780Z,3.83
2018-01-26T03:40:27.419Z,4.80
2018-01-26T03:42:55.042Z,4.50
2018-01-26T03:45:22.625Z,4.20
2018-01-26T03:47:50.217Z,4.43
2018-01-26T03:50:17.825Z,3.77
2018-01-26T03:52:45.447Z,4.90
2018-01-26T03:55:13.273Z,3.97
2018-01-26T03:57:41.003Z,4.93
2018-01-26T04:00:08.597Z,5.17
2018-01-26T04:02:36.346Z,5.50
2018-01-26T04:05:03.936Z,4.50
2018-01-26T04:07:31.592Z,4.67
2018-01-26T04:09:59.199Z,3.67
2018-01-26T04:12:26.835Z,4.47
2018-01-26T04:14:54.442Z,4.20
2018-01-26T04:17:22.078Z,3.30
2018-01-26T04:19:49.733Z,4.30
2018-01-26T04:22:17.438Z,4.67
2018-01-26T04:24:45.050Z,4.00
2018-01-26T04:27:12.758Z,4.20
2018-01-26T04:29:40.393Z,4.30
2018-01-26T04:32:08.043Z,4.10
2018-01-26T04:34:35.786Z,4.73
2018-01-26T04:37:03.505Z,4.63
2018-01-26T04:39:31.174Z,4.30
2018-01-26T04:41:58.775Z,4.53
2018-01-26T04:44:26.407Z,4.40
2018-01-26T04:46:54.023Z,4.60
2018-01-26T04:49:21.735Z,3.83
2018-01-26T04:51:49.374Z,4.60
2018-01-26T04:54:17.065Z,5.40
2018-01-26T04:56:44.682Z,4.50
2018-01-26T04:59:12.453Z,6.13
2018-01-26T05:01:40.149Z,4.40
2018-01-26T05:04:07.784Z,4.90
2018-01-26T05:06:35.380Z,4.20
2018-01-26T05:09:03.023Z,4.67
2018-01-26T05:11:30.679Z,4.50
2018-01-26T05:13:58.323Z,11.40
2018-01-26T05:16:25.960Z,23.37
2018-01-26T05:18:53.706Z,10.43
2018-01-26T05:21:21.417Z,6.07
2018-01-26T05:23:49.123Z,6.93
2018-01-26T05:26:16.774Z,6.70
2018-01-26T05:28:44.438Z,7.30
2018-01-26T05:31:12.019Z,6.63
2018-01-26T05:33:39.673Z,8.27
2018-01-26T05:36:07.273Z,8.23
2018-01-26T05:38:34.936Z,6.90
2018-01-26T05:41:02.534Z,7.10
2018-01-26T05:43:30.170Z,6.60
2018-01-26T05:45:57.807Z,6.87
2018-01-26T05:48:25.461Z,15.23
2018-01-26T05:50:53.093Z,9.60
2018-01-26T05:53:20.807Z,8.47
2018-01-26T05:55:48.437Z,5.83
2018-01-26T05:58:16.139Z,5.90
2018-01-26T06:00:43.762Z,6.27
2018-01-26T06:03:11.381Z,7.93
2018-01-26T06:05:39.053Z,7.70
2018-01-26T06:08:06.734Z,6.37
2018-01-26T06:10:34.323Z,6.40
2018-01-26T06:13:01.943Z,6.73
2018-01-26T06:15:29.624Z,6.63
2018-01-26T06:17:57.254Z,6.10
2018-01-26T06:20:24.886Z,7.00
2018-01-26T06:22:52.570Z,5.80
2018-01-26T06:25:20.157Z,6.70
2018-01-26T06:27:47.778Z,7.53
2018-01-26T06:30:15.384Z,6.30
2018-01-26T06:32:43.112Z,5.47
2018-01-26T06:35:10.680Z,7.30
2018-01-26T06:37:38.278Z,6.50
2018-01-26T06:40:05.913Z,6.00
2018-01-26T06:42:33.501Z,6.13
2018-01-26T06:45:01.124Z,5.53
2018-01-26T06:47:28.716Z,5.90
2018-01-26T06:49:56.342Z,5.97
2018-01-26T06:52:23.957Z,6.67
2018-01-26T06:54:51.603Z,6.30
2018-01-26T06:57:19.190Z,7.00
2018-01-26T06:59:46.851Z,8.27
2018-01-26T07:02:14.430Z,8.00
2018-01-26T07:04:42.056Z,7.43
2018-01-26T07:07:09.641Z,5.83
2018-01-26T07:09:37.310Z,6.20
2018-01-26T07:12:04.913Z,7.27
2018-01-26T07:14:33.087Z,6.60
2018-01-26T07:17:00.810Z,6.57
2018-01-26T07:19:28.425Z,5.73
2018-01-26T07:21:56.215Z,6.17
2018-01-26T07:24:23.949Z,6.50
2018-01-26T07:26:52.026Z,6.83
2018-01-26T07:29:20.338Z,6.70
2018-01-26T07:31:48.010Z,6.60
2018-01-26T07:34:15.674Z,6.30
2018-01-26T07:36:43.259Z,6.53
2018-01-26T07:39:10.897Z,6.43
2018-01-26T07:41:38.495Z,5.37
2018-01-26T07:44:06.086Z,5.73
2018-01-26T07:46:33.693Z,6.40
2018-01-26T07:49:01.290Z,6.70
2018-01-26T07:51:28.906Z,6.10
2018-01-26T07:53:56.496Z,6.17
2018-01-26T07:56:24.110Z,6.50
2018-01-26T07:58:51.696Z,6.77
2018-01-26T08:01:19.314Z,8.97
2018-01-26T08:03:46.906Z,7.83
2018-01-26T08:06:14.612Z,8.33
2018-01-26T08:08:42.191Z,7.27
2018-01-26T08:11:09.861Z,8.00
2018-01-26T08:13:37.507Z,6.87
2018-01-26T08:16:05.133Z,8.53
2018-01-26T08:18:32.742Z,7.20
2018-01-26T08:21:00.432Z,7.13
2018-01-26T08:23:28.041Z,8.60
2018-01-26T08:25:55.686Z,6.30
2018-01-26T08:28:23.298Z,8.07
2018-01-26T08:30:50.933Z,7.67
2018-01-26T08:33:18.514Z,6.57
2018-01-26T08:35:46.139Z,8.53
2018-01-26T08:38:13.726Z,7.50
2018-01-26T08:40:41.345Z,6.60
2018-01-26T08:43:08.994Z,6.27
2018-01-26T08:45:36.640Z,6.87
2018-01-26T08:48:04.296Z,6.40
2018-01-26T08:50:31.916Z,7.30
2018-01-26T08:52:59.505Z,7.30
2018-01-26T08:55:27.126Z,10.07
2018-01-26T08:57:54.731Z,8.10
2018-01-26T09:00:22.368Z,8.10
2018-01-26T09:02:49.959Z,8.13
2018-01-26T09:05:17.595Z,7.80
2018-01-26T09:07:45.197Z,8.00
2018-01-26T09:10:12.853Z,7.67
2018-01-26T09:12:40.453Z,7.40
2018-01-26T09:15:08.141Z,8.97
2018-01-26T09:17:35.738Z,8.10
2018-01-26T09:20:03.362Z,9.20
2018-01-26T09:22:30.950Z,7.80
2018-01-26T09:24:58.621Z,7.90
2018-01-26T09:27:26.345Z,7.90
2018-01-26T09:29:53.961Z,8.30
2018-01-26T09:32:21.558Z,8.73
2018-01-26T09:34:49.174Z,8.13
2018-01-26T09:37:16.765Z,7.63
2018-01-26T09:39:44.412Z,7.67
2018-01-26T09:42:12.023Z,8.70
2018-01-26T09:44:39.662Z,9.27
2018-01-26T09:47:07.267Z,8.93
2018-01-26T09:49:34.969Z,8.97
2018-01-26T09:52:02.711Z,11.73
2018-01-26T09:54:30.355Z,9.10
2018-01-26T09:56:57.956Z,8.10
2018-01-26T09:59:26.011Z,9.23
2018-01-26T10:01:53.821Z,8.80
2018-01-26T10:04:21.489Z,8.63
2018-01-26T10:06:49.124Z,8.07
2018-01-26T10:09:16.874Z,7.30
2018-01-26T10:11:44.519Z,8.10
2018-01-26T10:14:12.548Z,8.20
2018-01-26T10:16:54.120Z,5.70
2018-01-26T10:19:33.179Z,7.23
2018-01-26T10:22:05.570Z,8.67
2018-01-26T10:24:33.713Z,7.93
2018-01-26T10:27:02.526Z,8.80
2018-01-26T10:29:30.285Z,8.20
2018-01-26T10:31:58.164Z,8.50
2018-01-26T10:34:26.476Z,8.70
2018-01-26T10:36:54.134Z,9.40
2018-01-26T10:39:21.777Z,7.87
2018-01-26T10:41:49.559Z,9.70
2018-01-26T10:44:18.266Z,7.83
2018-01-26T10:46:46.479Z,5.00
2018-01-26T10:49:14.372Z,5.10
2018-01-26T10:51:43.052Z,5.30
2018-01-26T10:54:10.834Z,5.80
2018-01-26T10:56:38.513Z,6.30
2018-01-26T10:59:06.296Z,5.07
2018-01-26T11:01:33.964Z,5.50
2018-01-26T11:04:01.665Z,4.87
2018-01-26T11:06:29.397Z,4.77
2018-01-26T11:08:57.235Z,4.43
2018-01-26T11:11:25.148Z,4.50
2018-01-26T11:13:52.868Z,3.47
2018-01-26T11:16:20.623Z,4.20
2018-01-26T11:18:48.385Z,4.20
2018-01-26T11:21:16.060Z,4.03
2018-01-26T11:23:43.913Z,4.70
2018-01-26T11:26:11.578Z,4.50
2018-01-26T11:28:39.245Z,4.93
2018-01-26T11:31:06.899Z,4.47
2018-01-26T11:33:34.502Z,4.70
2018-01-26T11:36:02.122Z,4.70
2018-01-26T11:38:29.882Z,5.20
2018-01-26T11:40:57.523Z,4.40
2018-01-26T11:43:25.162Z,4.67
2018-01-26T11:45:52.874Z,4.40
2018-01-26T11:48:20.493Z,3.27
2018-01-26T11:50:48.203Z,3.80
2018-01-26T11:53:16.041Z,4.10
2018-01-26T11:55:43.712Z,4.80
2018-01-26T11:58:11.341Z,4.80
2018-01-26T12:00:38.938Z,4.20
2018-01-26T12:03:06.907Z,3.90
2018-01-26T12:05:34.937Z,4.20
2018-01-26T12:08:02.907Z,4.40
2018-01-26T12:10:30.754Z,5.93
2018-01-26T12:12:58.607Z,5.83
2018-01-26T12:15:26.605Z,3.73
2018-01-26T12:17:56.318Z,3.40
2018-01-26T12:20:24.603Z,3.70
2018-01-26T12:22:53.608Z,4.00
2018-01-26T12:25:23.496Z,3.90
2018-01-26T12:27:52.419Z,4.30
2018-01-26T12:30:20.464Z,3.73
2018-01-26T12:32:53.530Z,4.13
2018-01-26T12:35:26.839Z,4.37
2018-01-26T12:37:55.005Z,4.90
2018-01-26T12:40:22.988Z,4.90
2018-01-26T12:42:51.060Z,4.00
2018-01-26T12:45:19.026Z,5.23
2018-01-26T12:47:47.031Z,4.10
2018-01-26T12:50:14.831Z,4.20
2018-01-26T12:52:42.762Z,3.80
2018-01-26T12:55:11.983Z,4.30
2018-01-26T12:57:39.780Z,4.30
2018-01-26T13:00:07.710Z,4.70
2018-01-26T13:02:36.946Z,4.50
2018-01-26T13:05:04.535Z,3.93
2018-01-26T13:07:32.174Z,3.97
2018-01-26T13:09:59.774Z,3.90
2018-01-26T13:12:27.566Z,4.40
2018-01-26T13:14:55.158Z,4.20
2018-01-26T13:17:22.779Z,4.33
2018-01-26T13:19:50.427Z,3.83
2018-01-26T13:22:18.051Z,3.23
2018-01-26T13:24:45.678Z,4.70
2018-01-26T13:27:13.311Z,5.13
2018-01-26T13:29:40.920Z,4.20
2018-01-26T13:32:08.546Z,4.13
2018-01-26T13:34:36.159Z,4.90
2018-01-26T13:37:03.826Z,4.50
2018-01-26T13:39:31.419Z,5.63
2018-01-26T13:41:59.067Z,3.80
2018-01-26T13:44:26.733Z,4.60
2018-01-26T13:46:54.362Z,4.23
2018-01-26T13:49:21.961Z,5.23
2018-01-26T13:51:49.721Z,4.60
2018-01-26T13:54:17.345Z,5.30
2018-01-26T13:56:44.958Z,5.03
2018-01-26T13:59:12.688Z,3.90
2018-01-26T14:01:40.317Z,4.50
2018-01-26T14:04:07.955Z,5.00
2018-01-26T14:06:35.662Z,4.40
2018-01-26T14:09:03.237Z,4.43
2018-01-26T14:11:30.933Z,5.00
2018-01-26T14:13:58.573Z,4.23
2018-01-26T14:16:26.286Z,4.97
2018-01-26T14:18:53.902Z,5.13
2018-01-26T14:21:21.541Z,5.20
2018-01-26T14:23:49.140Z,4.63
2018-01-26T14:26:16.815Z,4.37
2018-01-26T14:28:44.431Z,7.27
2018-01-26T14:31:12.076Z,6.30
2018-01-26T14:33:39.671Z,6.10
2018-01-26T14:36:07.300Z,5.77
2018-01-26T14:38:34.943Z,5.80
2018-01-26T14:41:02.575Z,5.10
2018-01-26T14:43:30.247Z,5.40
2018-01-26T14:45:57.850Z,5.60
2018-01-26T14:48:25.488Z,7.13
2018-01-26T14:50:53.083Z,6.77
2018-01-26T14:53:20.694Z,5.20
2018-01-26T14:55:48.294Z,5.27
2018-01-26T14:58:16.032Z,5.37
2018-01-26T15:00:43.630Z,5.50
2018-01-26T15:03:11.266Z,6.50
2018-01-26T15:05:38.896Z,7.40
2018-01-26T15:08:06.546Z,7.30
2018-01-26T15:10:34.168Z,5.80
2018-01-26T15:13:01.886Z,5.27
2018-01-26T15:15:29.480Z,5.37
2018-01-26T15:17:57.199Z,5.17
2018-01-26T15:20:24.834Z,6.40
2018-01-26T15:22:52.533Z,5.97
2018-01-26T15:25:20.150Z,5.60
2018-01-26T15:27:47.834Z,5.87
2018-01-26T15:30:15.429Z,6.27
2018-01-26T15:32:43.036Z,5.87
2018-01-26T15:35:10.672Z,6.00
2018-01-26T15:37:38.275Z,6.47
2018-01-26T15:40:05.919Z,5.67
2018-01-26T15:42:33.542Z,5.50
2018-01-26T15:45:01.266Z,6.43
2018-01-26T15:47:28.899Z,5.80
2018-01-26T15:49:56.587Z,11.17
2018-01-26T15:52:24.216Z,25.10
2018-01-26T15:54:51.894Z,9.30
2018-01-26T15:57:19.514Z,6.47
2018-01-26T15:59:47.126Z,5.70
2018-01-26T16:02:14.823Z,5.60
2018-01-26T16:04:42.430Z,6.10
2018-01-26T16:07:10.191Z,6.70
2018-01-26T16:09:37.830Z,6.00
2018-01-26T16:12:05.474Z,6.17
2018-01-26T16:14:33.164Z,6.87
2018-01-26T16:17:00.798Z,6.20
2018-01-26T16:19:28.419Z,5.90
2018-01-26T16:21:56.065Z,6.17
2018-01-26T16:24:23.661Z,6.87
2018-01-26T16:26:51.310Z,6.00
2018-01-26T16:29:18.958Z,6.70
2018-01-26T16:31:46.605Z,7.10
2018-01-26T16:34:14.225Z,7.00
2018-01-26T16:36:41.833Z,7.40
2018-01-26T16:39:09.561Z,7.50
2018-01-26T16:41:37.199Z,8.13
2018-01-26T16:44:04.886Z,9.23
2018-01-26T16:46:32.480Z,9.83
2018-01-26T16:49:00.109Z,11.20
2018-01-26T16:51:27.733Z,9.40
2018-01-26T16:53:55.370Z,6.90
2018-01-26T16:56:23.009Z,8.30
2018-01-26T16:58:50.633Z,8.17
2018-01-26T17:01:18.241Z,7.60
2018-01-26T17:03:45.854Z,6.67
2018-01-26T17:06:13.479Z,6.90
2018-01-26T17:08:41.155Z,10.07
2018-01-26T17:11:08.801Z,8.03
2018-01-26T17:13:36.416Z,10.80
2018-01-26T17:16:04.011Z,30.07
2018-01-26T17:18:31.763Z,12.67
2018-01-26T17:20:59.374Z,8.40
2018-01-26T17:23:27.086Z,7.20
2018-01-26T17:25:54.679Z,8.57
2018-01-26T17:28:22.297Z,7.87
2018-01-26T17:30:49.922Z,6.30
2018-01-26T17:33:17.590Z,7.73
2018-01-26T17:35:45.212Z,7.80
2018-01-26T17:38:12.866Z,7.33
2018-01-26T17:40:40.467Z,6.50
2018-01-26T17:43:08.094Z,7.83
2018-01-26T17:45:35.694Z,7.40
2018-01-26T17:48:03.362Z,7.80
2018-01-26T17:50:31.014Z,8.13
2018-01-26T17:52:58.636Z,7.50
2018-01-26T17:55:26.227Z,6.63
2018-01-26T17:57:53.943Z,8.50
2018-01-26T18:00:21.533Z,8.73
2018-01-26T18:02:49.167Z,7.80
2018-01-26T18:05:16.806Z,9.40
2018-01-26T18:07:44.406Z,8.43
2018-01-26T18:10:12.016Z,8.43
2018-01-26T18:12:39.663Z,18.10
2018-01-26T18:15:07.344Z,19.50
2018-01-26T18:17:34.927Z,12.43
2018-01-26T18:20:02.563Z,9.43
2018-01-26T18:22:30.218Z,8.47
2018-01-26T18:24:57.854Z,8.40
2018-01-26T18:27:25.480Z,9.03
2018-01-26T18:29:53.115Z,8.53
2018-01-26T18:32:20.721Z,8.57
2018-01-26T18:34:48.350Z,8.30
2018-01-26T18:37:15.942Z,7.40
2018-01-26T18:39:43.577Z,8.47
2018-01-26T18:42:11.161Z,8.23
2018-01-26T18:44:38.802Z,10.30
2018-01-26T18:47:06.402Z,57.00
2018-01-26T18:49:34.029Z,18.27
2018-01-26T18:52:01.637Z,49.37
2018-01-26T18:54:29.273Z,59.00
2018-01-26T18:56:56.929Z,16.87
2018-01-26T18:59:24.562Z,9.03
2018-01-26T19:01:52.170Z,7.93
2018-01-26T19:04:19.813Z,9.83
2018-01-26T19:06:47.483Z,10.30
2018-01-26T19:09:15.312Z,9.60
2018-01-26T19:11:42.936Z,9.30
2018-01-26T19:14:10.557Z,9.03
2018-01-26T19:16:38.158Z,9.73
2018-01-26T19:19:05.779Z,9.60
2018-01-26T19:21:33.389Z,10.50
2018-01-26T19:24:01.049Z,10.80
2018-01-26T19:26:28.693Z,11.37
2018-01-26T19:28:56.346Z,8.27
2018-01-26T19:31:23.981Z,6.77
2018-01-26T19:33:51.665Z,7.33
2018-01-26T19:36:19.350Z,7.13
2018-01-26T19:38:47.139Z,7.73
2018-01-26T19:41:14.811Z,8.90
2018-01-26T19:43:42.571Z,8.50
2018-01-26T19:46:10.596Z,8.60
2018-01-26T19:48:39.907Z,9.03
2018-01-26T19:51:07.580Z,8.57
2018-01-26T19:53:35.297Z,9.10
2018-01-26T19:56:03.086Z,8.63
2018-01-26T19:58:30.838Z,9.97
2018-01-26T20:00:58.435Z,8.67
2018-01-26T20:03:32.004Z,10.87
2018-01-26T20:06:05.121Z,11.67
2018-01-26T20:08:38.318Z,12.00
2018-01-26T20:11:06.221Z,30.73
2018-01-26T20:13:34.200Z,17.70
2018-01-26T20:16:01.867Z,13.07
2018-01-26T20:18:29.759Z,12.27
2018-01-26T20:20:57.666Z,11.40
2018-01-26T20:23:25.307Z,9.97
2018-01-26T20:25:53.007Z,12.33
2018-01-26T20:28:20.614Z,11.00
2018-01-26T20:30:48.600Z,11.20
2018-01-26T20:33:16.275Z,11.60
2018-01-26T20:35:44.173Z,12.07
2018-01-26T20:38:11.822Z,11.63
2018-01-26T20:40:39.476Z,11.03
2018-01-26T20:43:07.196Z,10.80
2018-01-26T20:45:34.862Z,11.27
2018-01-26T20:48:02.479Z,12.37
2018-01-26T20:50:30.160Z,30.17
2018-01-26T20:52:57.946Z,51.50
2018-01-26T20:55:25.730Z,13.77
2018-01-26T20:57:53.545Z,13.30
2018-01-26T21:00:21.541Z,12.43
2018-01-26T21:02:49.467Z,13.30
2018-01-26T21:05:17.129Z,13.63
2018-01-26T21:07:45.007Z,13.10
2018-01-26T21:10:12.977Z,12.80
2018-01-26T21:12:40.622Z,12.60
2018-01-26T21:15:08.299Z,12.57
2018-01-26T21:17:35.901Z,12.77
2018-01-26T21:20:03.547Z,13.50
2018-01-26T21:22:31.145Z,13.93
2018-01-26T21:24:58.772Z,12.10
2018-01-26T21:27:26.382Z,12.63
2018-01-26T21:29:54.033Z,13.63
2018-01-26T21:32:21.613Z,14.20
2018-01-26T21:34:49.261Z,13.87
2018-01-26T21:37:16.862Z,12.10
2018-01-26T21:39:44.510Z,13.27
2018-01-26T21:42:12.108Z,12.40
2018-01-26T21:44:39.742Z,12.57
2018-01-26T21:47:07.361Z,12.53
2018-01-26T21:49:35.019Z,12.30
2018-01-26T21:52:02.642Z,12.57
2018-01-26T21:54:30.262Z,12.60
2018-01-26T21:56:57.874Z,13.23
2018-01-26T21:59:25.494Z,11.97
2018-01-26T22:01:53.105Z,13.57
2018-01-26T22:04:20.718Z,12.90
2018-01-26T22:06:53.666Z,12.10
2018-01-26T22:09:21.354Z,11.20
2018-01-26T22:11:48.938Z,11.97
2018-01-26T22:14:16.587Z,10.33
2018-01-26T22:16:44.187Z,11.27
2018-01-26T22:19:11.804Z,11.17
2018-01-26T22:21:39.445Z,11.30
2018-01-26T22:24:07.062Z,11.67
2018-01-26T22:26:34.738Z,11.23
2018-01-26T22:29:02.395Z,12.13
2018-01-26T22:31:29.991Z,11.60
2018-01-26T22:33:57.625Z,10.70
2018-01-26T22:36:25.225Z,11.97
2018-01-26T22:38:52.857Z,13.10
2018-01-26T22:41:20.487Z,11.90
2018-01-26T22:43:48.083Z,12.33
2018-01-26T22:46:15.723Z,11.57
2018-01-26T22:48:43.328Z,11.73
2018-01-26T22:51:10.955Z,11.70
2018-01-26T22:53:38.621Z,10.43
2018-01-26T22:56:06.242Z,10.87
2018-01-26T22:58:33.844Z,11.90
2018-01-26T23:01:01.466Z,11.10
2018-01-26T23:03:29.122Z,10.90
2018-01-26T23:05:56.758Z,11.57
2018-01-26T23:08:24.353Z,11.17
2018-01-26T23:10:51.982Z,11.73
2018-01-26T23:13:19.572Z,11.87
2018-01-26T23:15:47.210Z,10.10
2018-01-26T23:18:14.822Z,10.90
2018-01-26T23:20:42.514Z,10.70
2018-01-26T23:23:10.141Z,10.93
2018-01-26T23:25:37.787Z,11.00
2018-01-26T23:28:05.393Z,10.50
2018-01-26T23:30:33.053Z,9.90
2018-01-26T23:33:00.630Z,9.60
2018-01-26T23:35:28.259Z,11.47
2018-01-26T23:37:55.865Z,10.13
2018-01-26T23:40:26.105Z,9.40
2018-01-26T23:42:53.702Z,10.73
2018-01-26T23:45:21.330Z,10.47
2018-01-26T23:47:48.978Z,11.83
2018-01-26T23:50:16.591Z,10.63
2018-01-26T23:52:44.245Z,11.43
2018-01-26T23:55:11.836Z,10.10
2018-01-26T23:57:39.475Z,12.20
